sensor_id;sensor_type;location;lat;lon;timestamp;P1;durP1;ratioP1;P2;durP2;ratioP2
55148;SDS011;49539;48.160;11.530;2023-05-07T00:01:19;8.82;;;5.85;;
55148;SDS011;49539;48.160;11.530;2023-05-07T00:03:44;8.73;;;6.17;;
55148;SDS011;49539;48.160;11.530;2023-05-07T00:06:10;11.30;;;6.97;;
55148;SDS011;49539;48.160;11.530;2023-05-07T00:08:37;12.52;;;6.10;;
55148;SDS011;49539;48.160;11.530;2023-05-07T00:11:03;11.85;;;6.50;;
55148;SDS011;49539;48.160;11.530;2023-05-07T00:13:28;9.50;;;6.18;;
55148;SDS011;49539;48.160;11.530;2023-05-07T00:16:01;10.45;;;6.70;;
55148;SDS011;49539;48.160;11.530;2023-05-07T00:18:30;11.65;;;7.00;;
55148;SDS011;49539;48.160;11.530;2023-05-07T00:20:56;9.40;;;6.32;;
55148;SDS011;49539;48.160;11.530;2023-05-07T00:23:22;12.50;;;6.88;;
55148;SDS011;49539;48.160;11.530;2023-05-07T00:25:48;9.80;;;6.68;;
55148;SDS011;49539;48.160;11.530;2023-05-07T00:28:13;11.43;;;7.53;;
55148;SDS011;49539;48.160;11.530;2023-05-07T00:30:38;12.07;;;7.40;;
55148;SDS011;49539;48.160;11.530;2023-05-07T00:33:03;12.10;;;7.47;;
55148;SDS011;49539;48.160;11.530;2023-05-07T00:35:29;13.27;;;7.22;;
55148;SDS011;49539;48.160;11.530;2023-05-07T00:37:55;13.80;;;7.80;;
55148;SDS011;49539;48.160;11.530;2023-05-07T00:40:20;11.35;;;7.13;;
55148;SDS011;49539;48.160;11.530;2023-05-07T00:42:48;11.38;;;7.03;;
55148;SDS011;49539;48.160;11.530;2023-05-07T00:45:17;10.82;;;6.97;;
55148;SDS011;49539;48.160;11.530;2023-05-07T00:47:44;10.98;;;6.78;;
55148;SDS011;49539;48.160;11.530;2023-05-07T00:50:09;13.18;;;7.47;;
55148;SDS011;49539;48.160;11.530;2023-05-07T00:52:36;12.00;;;7.20;;
55148;SDS011;49539;48.160;11.530;2023-05-07T00:57:53;12.48;;;6.60;;
55148;SDS011;49539;48.160;11.530;2023-05-07T01:00:22;12.52;;;6.85;;
55148;SDS011;49539;48.160;11.530;2023-05-07T01:02:50;10.93;;;7.32;;
55148;SDS011;49539;48.160;11.530;2023-05-07T01:05:16;11.73;;;7.65;;
55148;SDS011;49539;48.160;11.530;2023-05-07T01:07:42;13.60;;;7.18;;
55148;SDS011;49539;48.160;11.530;2023-05-07T01:10:15;11.95;;;7.97;;
55148;SDS011;49539;48.160;11.530;2023-05-07T01:12:46;14.13;;;7.55;;
55148;SDS011;49539;48.160;11.530;2023-05-07T01:15:23;13.32;;;7.80;;
55148;SDS011;49539;48.160;11.530;2023-05-07T01:17:57;14.82;;;8.32;;
55148;SDS011;49539;48.160;11.530;2023-05-07T01:20:23;10.32;;;7.20;;
55148;SDS011;49539;48.160;11.530;2023-05-07T01:22:48;13.73;;;7.68;;
55148;SDS011;49539;48.160;11.530;2023-05-07T01:25:18;11.00;;;7.95;;
55148;SDS011;49539;48.160;11.530;2023-05-07T01:27:44;13.38;;;7.82;;
55148;SDS011;49539;48.160;11.530;2023-05-07T01:30:10;12.57;;;7.78;;
55148;SDS011;49539;48.160;11.530;2023-05-07T01:32:37;14.30;;;8.10;;
55148;SDS011;49539;48.160;11.530;2023-05-07T01:35:07;14.70;;;8.02;;
55148;SDS011;49539;48.160;11.530;2023-05-07T01:37:34;15.57;;;7.55;;
55148;SDS011;49539;48.160;11.530;2023-05-07T01:40:01;12.73;;;7.78;;
55148;SDS011;49539;48.160;11.530;2023-05-07T01:42:26;10.90;;;7.30;;
55148;SDS011;49539;48.160;11.530;2023-05-07T01:44:52;17.02;;;7.72;;
55148;SDS011;49539;48.160;11.530;2023-05-07T01:47:17;11.25;;;6.57;;
55148;SDS011;49539;48.160;11.530;2023-05-07T01:49:42;11.05;;;7.47;;
55148;SDS011;49539;48.160;11.530;2023-05-07T01:52:09;12.40;;;6.75;;
55148;SDS011;49539;48.160;11.530;2023-05-07T01:54:35;11.25;;;7.97;;
55148;SDS011;49539;48.160;11.530;2023-05-07T01:57:01;11.48;;;7.28;;
55148;SDS011;49539;48.160;11.530;2023-05-07T01:59:26;14.25;;;7.57;;
55148;SDS011;49539;48.160;11.530;2023-05-07T02:01:52;12.63;;;7.90;;
55148;SDS011;49539;48.160;11.530;2023-05-07T02:04:17;12.38;;;7.55;;
55148;SDS011;49539;48.160;11.530;2023-05-07T02:06:42;10.80;;;6.95;;
55148;SDS011;49539;48.160;11.530;2023-05-07T02:09:17;11.25;;;7.03;;
55148;SDS011;49539;48.160;11.530;2023-05-07T02:11:42;12.00;;;7.72;;
55148;SDS011;49539;48.160;11.530;2023-05-07T02:14:08;13.57;;;7.95;;
55148;SDS011;49539;48.160;11.530;2023-05-07T02:16:33;10.45;;;7.10;;
55148;SDS011;49539;48.160;11.530;2023-05-07T02:18:58;14.25;;;7.40;;
55148;SDS011;49539;48.160;11.530;2023-05-07T02:21:24;13.50;;;8.00;;
55148;SDS011;49539;48.160;11.530;2023-05-07T02:23:50;11.25;;;6.97;;
55148;SDS011;49539;48.160;11.530;2023-05-07T02:26:15;14.70;;;7.57;;
55148;SDS011;49539;48.160;11.530;2023-05-07T02:28:43;11.98;;;7.22;;
55148;SDS011;49539;48.160;11.530;2023-05-07T02:31:09;13.25;;;7.95;;
55148;SDS011;49539;48.160;11.530;2023-05-07T02:33:34;13.68;;;8.18;;
55148;SDS011;49539;48.160;11.530;2023-05-07T02:36:09;14.95;;;7.72;;
55148;SDS011;49539;48.160;11.530;2023-05-07T02:38:36;11.18;;;7.32;;
55148;SDS011;49539;48.160;11.530;2023-05-07T02:41:01;11.65;;;7.28;;
55148;SDS011;49539;48.160;11.530;2023-05-07T02:43:27;10.73;;;7.50;;
55148;SDS011;49539;48.160;11.530;2023-05-07T02:46:02;16.45;;;7.07;;
55148;SDS011;49539;48.160;11.530;2023-05-07T02:48:28;12.63;;;6.70;;
55148;SDS011;49539;48.160;11.530;2023-05-07T02:50:53;12.93;;;8.40;;
55148;SDS011;49539;48.160;11.530;2023-05-07T02:53:18;11.23;;;6.93;;
55148;SDS011;49539;48.160;11.530;2023-05-07T02:55:43;11.23;;;6.60;;
55148;SDS011;49539;48.160;11.530;2023-05-07T02:58:09;12.65;;;7.40;;
55148;SDS011;49539;48.160;11.530;2023-05-07T03:00:34;13.60;;;7.32;;
55148;SDS011;49539;48.160;11.530;2023-05-07T03:03:00;10.23;;;6.57;;
55148;SDS011;49539;48.160;11.530;2023-05-07T03:05:26;12.23;;;7.35;;
55148;SDS011;49539;48.160;11.530;2023-05-07T03:07:51;11.47;;;7.43;;
55148;SDS011;49539;48.160;11.530;2023-05-07T03:10:16;13.15;;;7.90;;
55148;SDS011;49539;48.160;11.530;2023-05-07T03:12:41;12.95;;;7.28;;
55148;SDS011;49539;48.160;11.530;2023-05-07T03:15:07;12.77;;;7.95;;
55148;SDS011;49539;48.160;11.530;2023-05-07T03:17:34;14.02;;;8.15;;
55148;SDS011;49539;48.160;11.530;2023-05-07T03:20:00;13.45;;;7.18;;
55148;SDS011;49539;48.160;11.530;2023-05-07T03:22:26;13.20;;;7.72;;
55148;SDS011;49539;48.160;11.530;2023-05-07T03:24:52;13.48;;;7.57;;
55148;SDS011;49539;48.160;11.530;2023-05-07T03:27:17;11.38;;;6.88;;
55148;SDS011;49539;48.160;11.530;2023-05-07T03:29:42;14.02;;;7.07;;
55148;SDS011;49539;48.160;11.530;2023-05-07T03:32:08;12.23;;;6.93;;
55148;SDS011;49539;48.160;11.530;2023-05-07T03:34:34;11.95;;;6.95;;
55148;SDS011;49539;48.160;11.530;2023-05-07T03:37:00;13.30;;;7.67;;
55148;SDS011;49539;48.160;11.530;2023-05-07T03:39:27;10.30;;;7.22;;
55148;SDS011;49539;48.160;11.530;2023-05-07T03:41:52;11.25;;;6.72;;
55148;SDS011;49539;48.160;11.530;2023-05-07T03:44:18;11.80;;;7.10;;
55148;SDS011;49539;48.160;11.530;2023-05-07T03:46:43;11.65;;;6.90;;
55148;SDS011;49539;48.160;11.530;2023-05-07T03:49:08;11.73;;;6.22;;
55148;SDS011;49539;48.160;11.530;2023-05-07T03:51:34;11.13;;;6.55;;
55148;SDS011;49539;48.160;11.530;2023-05-07T03:54:01;9.95;;;6.32;;
55148;SDS011;49539;48.160;11.530;2023-05-07T03:56:28;10.05;;;6.47;;
55148;SDS011;49539;48.160;11.530;2023-05-07T03:58:53;14.93;;;7.82;;
55148;SDS011;49539;48.160;11.530;2023-05-07T04:01:19;14.30;;;7.78;;
55148;SDS011;49539;48.160;11.530;2023-05-07T04:03:44;11.98;;;7.72;;
55148;SDS011;49539;48.160;11.530;2023-05-07T04:06:10;13.50;;;6.97;;
55148;SDS011;49539;48.160;11.530;2023-05-07T04:08:36;11.57;;;7.63;;
55148;SDS011;49539;48.160;11.530;2023-05-07T04:11:06;9.48;;;6.45;;
55148;SDS011;49539;48.160;11.530;2023-05-07T04:13:32;11.10;;;6.57;;
55148;SDS011;49539;48.160;11.530;2023-05-07T04:15:57;12.05;;;7.53;;
55148;SDS011;49539;48.160;11.530;2023-05-07T04:18:23;11.55;;;6.65;;
55148;SDS011;49539;48.160;11.530;2023-05-07T04:20:48;11.90;;;6.53;;
55148;SDS011;49539;48.160;11.530;2023-05-07T04:23:14;11.50;;;6.30;;
55148;SDS011;49539;48.160;11.530;2023-05-07T04:25:39;11.23;;;6.68;;
55148;SDS011;49539;48.160;11.530;2023-05-07T04:28:06;11.35;;;7.10;;
55148;SDS011;49539;48.160;11.530;2023-05-07T04:30:31;11.98;;;6.75;;
55148;SDS011;49539;48.160;11.530;2023-05-07T04:32:56;10.68;;;6.35;;
55148;SDS011;49539;48.160;11.530;2023-05-07T04:35:22;12.65;;;6.82;;
55148;SDS011;49539;48.160;11.530;2023-05-07T04:37:47;10.52;;;6.53;;
55148;SDS011;49539;48.160;11.530;2023-05-07T04:40:12;16.80;;;6.68;;
55148;SDS011;49539;48.160;11.530;2023-05-07T04:42:38;9.43;;;5.60;;
55148;SDS011;49539;48.160;11.530;2023-05-07T04:45:04;11.82;;;7.18;;
55148;SDS011;49539;48.160;11.530;2023-05-07T04:47:30;19.85;;;6.80;;
55148;SDS011;49539;48.160;11.530;2023-05-07T04:49:55;13.63;;;7.15;;
55148;SDS011;49539;48.160;11.530;2023-05-07T04:52:20;13.35;;;6.50;;
55148;SDS011;49539;48.160;11.530;2023-05-07T04:54:46;8.57;;;6.23;;
55148;SDS011;49539;48.160;11.530;2023-05-07T04:57:11;10.40;;;6.28;;
55148;SDS011;49539;48.160;11.530;2023-05-07T04:59:37;11.43;;;6.90;;
55148;SDS011;49539;48.160;11.530;2023-05-07T05:02:03;10.00;;;6.60;;
55148;SDS011;49539;48.160;11.530;2023-05-07T05:04:30;12.63;;;6.95;;
55148;SDS011;49539;48.160;11.530;2023-05-07T05:06:56;8.30;;;5.40;;
55148;SDS011;49539;48.160;11.530;2023-05-07T05:09:21;11.98;;;6.05;;
55148;SDS011;49539;48.160;11.530;2023-05-07T05:11:47;11.05;;;6.32;;
55148;SDS011;49539;48.160;11.530;2023-05-07T05:14:12;10.40;;;6.18;;
55148;SDS011;49539;48.160;11.530;2023-05-07T05:16:37;10.38;;;6.72;;
55148;SDS011;49539;48.160;11.530;2023-05-07T05:19:02;10.07;;;5.97;;
55148;SDS011;49539;48.160;11.530;2023-05-07T05:21:28;10.30;;;6.20;;
55148;SDS011;49539;48.160;11.530;2023-05-07T05:23:53;8.40;;;5.72;;
55148;SDS011;49539;48.160;11.530;2023-05-07T05:26:19;8.55;;;5.43;;
55148;SDS011;49539;48.160;11.530;2023-05-07T05:28:46;10.43;;;6.20;;
55148;SDS011;49539;48.160;11.530;2023-05-07T05:31:15;10.95;;;6.03;;
55148;SDS011;49539;48.160;11.530;2023-05-07T05:33:41;9.02;;;6.32;;
55148;SDS011;49539;48.160;11.530;2023-05-07T05:36:07;7.38;;;4.88;;
55148;SDS011;49539;48.160;11.530;2023-05-07T05:38:34;9.85;;;5.70;;
55148;SDS011;49539;48.160;11.530;2023-05-07T05:41:00;6.95;;;4.55;;
55148;SDS011;49539;48.160;11.530;2023-05-07T05:43:27;7.93;;;4.65;;
55148;SDS011;49539;48.160;11.530;2023-05-07T05:45:52;10.05;;;5.82;;
55148;SDS011;49539;48.160;11.530;2023-05-07T05:48:18;9.43;;;5.95;;
55148;SDS011;49539;48.160;11.530;2023-05-07T05:50:43;9.52;;;5.07;;
55148;SDS011;49539;48.160;11.530;2023-05-07T05:53:09;7.20;;;4.95;;
55148;SDS011;49539;48.160;11.530;2023-05-07T05:55:34;10.45;;;5.97;;
55148;SDS011;49539;48.160;11.530;2023-05-07T05:58:02;9.95;;;5.53;;
55148;SDS011;49539;48.160;11.530;2023-05-07T06:00:29;7.55;;;5.20;;
55148;SDS011;49539;48.160;11.530;2023-05-07T06:02:54;8.55;;;5.22;;
55148;SDS011;49539;48.160;11.530;2023-05-07T06:05:20;6.45;;;4.43;;
55148;SDS011;49539;48.160;11.530;2023-05-07T06:07:45;6.32;;;4.38;;
55148;SDS011;49539;48.160;11.530;2023-05-07T06:10:10;6.75;;;4.55;;
55148;SDS011;49539;48.160;11.530;2023-05-07T06:12:36;6.53;;;3.92;;
55148;SDS011;49539;48.160;11.530;2023-05-07T06:15:01;8.23;;;5.03;;
55148;SDS011;49539;48.160;11.530;2023-05-07T06:17:27;8.52;;;4.57;;
55148;SDS011;49539;48.160;11.530;2023-05-07T06:19:52;7.55;;;4.80;;
55148;SDS011;49539;48.160;11.530;2023-05-07T06:22:17;7.72;;;4.50;;
55148;SDS011;49539;48.160;11.530;2023-05-07T06:24:43;8.23;;;4.75;;
55148;SDS011;49539;48.160;11.530;2023-05-07T06:27:08;6.93;;;4.32;;
55148;SDS011;49539;48.160;11.530;2023-05-07T06:29:33;8.77;;;4.00;;
55148;SDS011;49539;48.160;11.530;2023-05-07T06:32:11;7.60;;;4.13;;
55148;SDS011;49539;48.160;11.530;2023-05-07T06:34:37;7.50;;;3.80;;
55148;SDS011;49539;48.160;11.530;2023-05-07T06:37:03;6.15;;;3.55;;
55148;SDS011;49539;48.160;11.530;2023-05-07T06:39:28;6.50;;;3.83;;
55148;SDS011;49539;48.160;11.530;2023-05-07T06:41:53;4.93;;;3.37;;
55148;SDS011;49539;48.160;11.530;2023-05-07T06:44:18;4.90;;;3.22;;
55148;SDS011;49539;48.160;11.530;2023-05-07T06:46:44;5.90;;;3.25;;
55148;SDS011;49539;48.160;11.530;2023-05-07T06:49:10;6.60;;;3.00;;
55148;SDS011;49539;48.160;11.530;2023-05-07T06:51:36;5.93;;;2.95;;
55148;SDS011;49539;48.160;11.530;2023-05-07T06:54:01;5.28;;;3.30;;
55148;SDS011;49539;48.160;11.530;2023-05-07T06:56:27;4.05;;;2.65;;
55148;SDS011;49539;48.160;11.530;2023-05-07T06:58:52;5.15;;;2.67;;
55148;SDS011;49539;48.160;11.530;2023-05-07T07:01:17;4.60;;;2.90;;
55148;SDS011;49539;48.160;11.530;2023-05-07T07:03:43;6.22;;;3.08;;
55148;SDS011;49539;48.160;11.530;2023-05-07T07:06:08;3.80;;;2.45;;
55148;SDS011;49539;48.160;11.530;2023-05-07T07:08:33;5.05;;;3.13;;
55148;SDS011;49539;48.160;11.530;2023-05-07T07:10:59;4.45;;;2.63;;
55148;SDS011;49539;48.160;11.530;2023-05-07T07:13:24;4.65;;;3.17;;
55148;SDS011;49539;48.160;11.530;2023-05-07T07:15:52;5.78;;;2.83;;
55148;SDS011;49539;48.160;11.530;2023-05-07T07:18:18;4.63;;;3.35;;
55148;SDS011;49539;48.160;11.530;2023-05-07T07:20:44;6.40;;;3.05;;
55148;SDS011;49539;48.160;11.530;2023-05-07T07:23:09;4.47;;;2.85;;
55148;SDS011;49539;48.160;11.530;2023-05-07T07:25:34;5.85;;;2.90;;
55148;SDS011;49539;48.160;11.530;2023-05-07T07:28:00;4.15;;;2.80;;
55148;SDS011;49539;48.160;11.530;2023-05-07T07:30:25;4.47;;;2.88;;
55148;SDS011;49539;48.160;11.530;2023-05-07T07:32:51;6.15;;;3.00;;
55148;SDS011;49539;48.160;11.530;2023-05-07T07:35:17;6.93;;;3.03;;
55148;SDS011;49539;48.160;11.530;2023-05-07T07:37:42;4.95;;;3.00;;
55148;SDS011;49539;48.160;11.530;2023-05-07T07:40:08;6.43;;;2.77;;
55148;SDS011;49539;48.160;11.530;2023-05-07T07:42:33;4.72;;;2.90;;
55148;SDS011;49539;48.160;11.530;2023-05-07T07:44:59;4.68;;;2.97;;
55148;SDS011;49539;48.160;11.530;2023-05-07T07:47:24;4.47;;;2.70;;
55148;SDS011;49539;48.160;11.530;2023-05-07T07:49:50;4.22;;;2.53;;
55148;SDS011;49539;48.160;11.530;2023-05-07T07:52:15;5.47;;;3.28;;
55148;SDS011;49539;48.160;11.530;2023-05-07T07:54:40;5.32;;;3.25;;
55148;SDS011;49539;48.160;11.530;2023-05-07T07:57:06;3.78;;;2.40;;
55148;SDS011;49539;48.160;11.530;2023-05-07T07:59:31;4.70;;;2.40;;
55148;SDS011;49539;48.160;11.530;2023-05-07T08:01:56;6.18;;;3.22;;
55148;SDS011;49539;48.160;11.530;2023-05-07T08:04:22;5.10;;;2.78;;
55148;SDS011;49539;48.160;11.530;2023-05-07T08:06:47;4.65;;;3.08;;
55148;SDS011;49539;48.160;11.530;2023-05-07T08:09:13;5.22;;;3.13;;
55148;SDS011;49539;48.160;11.530;2023-05-07T08:11:38;3.78;;;2.58;;
55148;SDS011;49539;48.160;11.530;2023-05-07T08:14:04;5.70;;;2.70;;
55148;SDS011;49539;48.160;11.530;2023-05-07T08:16:30;4.32;;;2.72;;
55148;SDS011;49539;48.160;11.530;2023-05-07T08:18:55;5.05;;;3.28;;
55148;SDS011;49539;48.160;11.530;2023-05-07T08:21:21;4.57;;;2.78;;
55148;SDS011;49539;48.160;11.530;2023-05-07T08:23:46;5.13;;;3.03;;
55148;SDS011;49539;48.160;11.530;2023-05-07T08:26:12;5.17;;;2.93;;
55148;SDS011;49539;48.160;11.530;2023-05-07T08:28:37;4.10;;;2.80;;
55148;SDS011;49539;48.160;11.530;2023-05-07T08:31:02;3.92;;;2.38;;
55148;SDS011;49539;48.160;11.530;2023-05-07T08:33:27;5.72;;;3.47;;
55148;SDS011;49539;48.160;11.530;2023-05-07T08:35:53;6.50;;;2.60;;
55148;SDS011;49539;48.160;11.530;2023-05-07T08:38:18;4.45;;;2.40;;
55148;SDS011;49539;48.160;11.530;2023-05-07T08:40:44;3.83;;;2.33;;
55148;SDS011;49539;48.160;11.530;2023-05-07T08:43:12;4.35;;;2.55;;
55148;SDS011;49539;48.160;11.530;2023-05-07T08:45:39;7.18;;;2.78;;
55148;SDS011;49539;48.160;11.530;2023-05-07T08:48:05;4.80;;;2.63;;
55148;SDS011;49539;48.160;11.530;2023-05-07T08:50:35;4.25;;;2.30;;
55148;SDS011;49539;48.160;11.530;2023-05-07T08:53:00;3.63;;;2.60;;
55148;SDS011;49539;48.160;11.530;2023-05-07T08:55:25;4.28;;;2.85;;
55148;SDS011;49539;48.160;11.530;2023-05-07T08:57:52;4.43;;;2.38;;
55148;SDS011;49539;48.160;11.530;2023-05-07T09:00:18;4.35;;;2.72;;
55148;SDS011;49539;48.160;11.530;2023-05-07T09:02:44;4.63;;;2.65;;
55148;SDS011;49539;48.160;11.530;2023-05-07T09:05:11;5.13;;;2.25;;
55148;SDS011;49539;48.160;11.530;2023-05-07T09:07:37;4.72;;;2.50;;
55148;SDS011;49539;48.160;11.530;2023-05-07T09:10:03;3.25;;;2.05;;
55148;SDS011;49539;48.160;11.530;2023-05-07T09:12:29;4.25;;;2.58;;
55148;SDS011;49539;48.160;11.530;2023-05-07T09:14:54;5.15;;;2.90;;
55148;SDS011;49539;48.160;11.530;2023-05-07T09:17:20;6.47;;;2.70;;
55148;SDS011;49539;48.160;11.530;2023-05-07T09:19:45;7.38;;;2.53;;
55148;SDS011;49539;48.160;11.530;2023-05-07T09:22:13;4.20;;;2.90;;
55148;SDS011;49539;48.160;11.530;2023-05-07T09:24:38;5.80;;;2.80;;
55148;SDS011;49539;48.160;11.530;2023-05-07T09:27:04;4.50;;;2.22;;
55148;SDS011;49539;48.160;11.530;2023-05-07T09:29:30;7.57;;;2.45;;
55148;SDS011;49539;48.160;11.530;2023-05-07T09:32:00;5.05;;;2.35;;
55148;SDS011;49539;48.160;11.530;2023-05-07T09:34:25;5.03;;;2.63;;
55148;SDS011;49539;48.160;11.530;2023-05-07T09:36:51;4.53;;;2.25;;
55148;SDS011;49539;48.160;11.530;2023-05-07T09:39:16;4.68;;;2.40;;
55148;SDS011;49539;48.160;11.530;2023-05-07T09:41:45;4.15;;;1.92;;
55148;SDS011;49539;48.160;11.530;2023-05-07T09:44:10;6.95;;;2.92;;
55148;SDS011;49539;48.160;11.530;2023-05-07T09:46:41;3.30;;;2.33;;
55148;SDS011;49539;48.160;11.530;2023-05-07T09:49:07;4.65;;;2.35;;
55148;SDS011;49539;48.160;11.530;2023-05-07T09:51:39;3.30;;;2.20;;
55148;SDS011;49539;48.160;11.530;2023-05-07T09:54:06;5.57;;;2.25;;
55148;SDS011;49539;48.160;11.530;2023-05-07T09:56:31;3.15;;;2.08;;
55148;SDS011;49539;48.160;11.530;2023-05-07T09:58:57;4.22;;;2.15;;
55148;SDS011;49539;48.160;11.530;2023-05-07T10:01:25;4.47;;;2.40;;
55148;SDS011;49539;48.160;11.530;2023-05-07T10:03:50;5.70;;;2.20;;
55148;SDS011;49539;48.160;11.530;2023-05-07T10:06:16;4.07;;;2.33;;
55148;SDS011;49539;48.160;11.530;2023-05-07T10:08:42;2.70;;;1.95;;
55148;SDS011;49539;48.160;11.530;2023-05-07T10:11:08;3.33;;;1.70;;
55148;SDS011;49539;48.160;11.530;2023-05-07T10:13:35;3.20;;;2.20;;
55148;SDS011;49539;48.160;11.530;2023-05-07T10:16:05;2.55;;;1.50;;
55148;SDS011;49539;48.160;11.530;2023-05-07T10:18:31;4.20;;;2.30;;
55148;SDS011;49539;48.160;11.530;2023-05-07T10:21:44;4.85;;;1.60;;
55148;SDS011;49539;48.160;11.530;2023-05-07T10:23:53;15.63;;;2.15;;
55148;SDS011;49539;48.160;11.530;2023-05-07T10:26:19;7.20;;;2.50;;
55148;SDS011;49539;48.160;11.530;2023-05-07T10:28:46;2.63;;;1.88;;
55148;SDS011;49539;48.160;11.530;2023-05-07T10:31:27;2.92;;;1.83;;
55148;SDS011;49539;48.160;11.530;2023-05-07T10:33:57;3.28;;;1.40;;
55148;SDS011;49539;48.160;11.530;2023-05-07T10:36:23;3.25;;;1.92;;
55148;SDS011;49539;48.160;11.530;2023-05-07T10:38:49;2.60;;;1.50;;
55148;SDS011;49539;48.160;11.530;2023-05-07T10:41:14;2.28;;;1.35;;
55148;SDS011;49539;48.160;11.530;2023-05-07T10:43:42;1.67;;;1.10;;
55148;SDS011;49539;48.160;11.530;2023-05-07T10:46:40;2.05;;;1.20;;
55148;SDS011;49539;48.160;11.530;2023-05-07T10:51:26;3.15;;;1.40;;
55148;SDS011;49539;48.160;11.530;2023-05-07T10:54:26;2.58;;;1.27;;
55148;SDS011;49539;48.160;11.530;2023-05-07T10:56:44;2.05;;;1.40;;
55148;SDS011;49539;48.160;11.530;2023-05-07T11:02:09;1.65;;;1.20;;
55148;SDS011;49539;48.160;11.530;2023-05-07T11:04:40;2.83;;;1.30;;
55148;SDS011;49539;48.160;11.530;2023-05-07T11:12:16;2.88;;;1.45;;
55148;SDS011;49539;48.160;11.530;2023-05-07T11:17:07;3.25;;;1.65;;
55148;SDS011;49539;48.160;11.530;2023-05-07T11:19:54;3.35;;;1.98;;
55148;SDS011;49539;48.160;11.530;2023-05-07T11:25:00;2.30;;;1.35;;
55148;SDS011;49539;48.160;11.530;2023-05-07T11:27:26;5.63;;;1.80;;
55148;SDS011;49539;48.160;11.530;2023-05-07T11:29:52;4.40;;;2.15;;
55148;SDS011;49539;48.160;11.530;2023-05-07T11:32:24;3.10;;;2.00;;
55148;SDS011;49539;48.160;11.530;2023-05-07T11:34:53;2.75;;;1.60;;
55148;SDS011;49539;48.160;11.530;2023-05-07T11:37:19;9.07;;;1.80;;
55148;SDS011;49539;48.160;11.530;2023-05-07T11:39:45;2.85;;;1.48;;
55148;SDS011;49539;48.160;11.530;2023-05-07T11:42:27;2.35;;;1.63;;
55148;SDS011;49539;48.160;11.530;2023-05-07T11:44:52;5.43;;;1.88;;
55148;SDS011;49539;48.160;11.530;2023-05-07T11:47:18;7.38;;;2.10;;
55148;SDS011;49539;48.160;11.530;2023-05-07T11:50:05;5.72;;;2.05;;
55148;SDS011;49539;48.160;11.530;2023-05-07T11:52:31;5.00;;;1.80;;
55148;SDS011;49539;48.160;11.530;2023-05-07T11:54:57;4.40;;;2.15;;
55148;SDS011;49539;48.160;11.530;2023-05-07T11:57:23;3.35;;;1.73;;
55148;SDS011;49539;48.160;11.530;2023-05-07T11:59:55;3.15;;;1.80;;
55148;SDS011;49539;48.160;11.530;2023-05-07T12:02:21;4.25;;;2.00;;
55148;SDS011;49539;48.160;11.530;2023-05-07T12:04:46;3.55;;;2.03;;
55148;SDS011;49539;48.160;11.530;2023-05-07T12:07:12;2.90;;;1.70;;
55148;SDS011;49539;48.160;11.530;2023-05-07T12:09:38;6.13;;;2.00;;
55148;SDS011;49539;48.160;11.530;2023-05-07T12:12:04;6.43;;;2.20;;
55148;SDS011;49539;48.160;11.530;2023-05-07T12:14:30;2.90;;;2.05;;
55148;SDS011;49539;48.160;11.530;2023-05-07T12:16:55;2.92;;;1.67;;
55148;SDS011;49539;48.160;11.530;2023-05-07T12:19:20;1.75;;;1.40;;
55148;SDS011;49539;48.160;11.530;2023-05-07T12:21:46;4.95;;;1.60;;
55148;SDS011;49539;48.160;11.530;2023-05-07T12:24:12;2.47;;;1.60;;
55148;SDS011;49539;48.160;11.530;2023-05-07T12:26:39;5.82;;;1.90;;
55148;SDS011;49539;48.160;11.530;2023-05-07T12:29:07;4.10;;;1.90;;
55148;SDS011;49539;48.160;11.530;2023-05-07T12:31:33;2.25;;;1.55;;
55148;SDS011;49539;48.160;11.530;2023-05-07T12:33:58;5.05;;;1.88;;
55148;SDS011;49539;48.160;11.530;2023-05-07T12:36:24;3.83;;;1.67;;
55148;SDS011;49539;48.160;11.530;2023-05-07T12:38:50;2.65;;;1.52;;
55148;SDS011;49539;48.160;11.530;2023-05-07T12:41:16;4.40;;;1.75;;
55148;SDS011;49539;48.160;11.530;2023-05-07T12:43:44;3.63;;;2.53;;
55148;SDS011;49539;48.160;11.530;2023-05-07T12:46:10;4.13;;;1.85;;
55148;SDS011;49539;48.160;11.530;2023-05-07T12:48:36;3.13;;;1.80;;
55148;SDS011;49539;48.160;11.530;2023-05-07T12:51:01;4.00;;;1.63;;
55148;SDS011;49539;48.160;11.530;2023-05-07T12:53:27;2.10;;;1.60;;
55148;SDS011;49539;48.160;11.530;2023-05-07T12:55:58;4.63;;;1.80;;
55148;SDS011;49539;48.160;11.530;2023-05-07T12:58:28;3.28;;;1.65;;
55148;SDS011;49539;48.160;11.530;2023-05-07T13:00:54;3.25;;;1.60;;
55148;SDS011;49539;48.160;11.530;2023-05-07T13:05:48;2.67;;;1.67;;
55148;SDS011;49539;48.160;11.530;2023-05-07T13:08:23;2.05;;;1.40;;
55148;SDS011;49539;48.160;11.530;2023-05-07T13:10:50;3.63;;;1.80;;
55148;SDS011;49539;48.160;11.530;2023-05-07T13:13:15;1.57;;;1.20;;
55148;SDS011;49539;48.160;11.530;2023-05-07T13:15:40;2.45;;;1.25;;
55148;SDS011;49539;48.160;11.530;2023-05-07T13:18:05;3.20;;;1.48;;
55148;SDS011;49539;48.160;11.530;2023-05-07T13:20:31;4.97;;;1.15;;
55148;SDS011;49539;48.160;11.530;2023-05-07T13:22:56;3.55;;;1.40;;
55148;SDS011;49539;48.160;11.530;2023-05-07T13:25:21;2.20;;;1.40;;
55148;SDS011;49539;48.160;11.530;2023-05-07T13:27:47;3.63;;;1.27;;
55148;SDS011;49539;48.160;11.530;2023-05-07T13:30:12;2.53;;;1.37;;
55148;SDS011;49539;48.160;11.530;2023-05-07T13:32:37;2.30;;;1.30;;
55148;SDS011;49539;48.160;11.530;2023-05-07T13:35:03;2.97;;;1.40;;
55148;SDS011;49539;48.160;11.530;2023-05-07T13:37:28;1.63;;;1.17;;
55148;SDS011;49539;48.160;11.530;2023-05-07T13:39:53;2.30;;;1.20;;
55148;SDS011;49539;48.160;11.530;2023-05-07T13:42:18;3.60;;;1.50;;
55148;SDS011;49539;48.160;11.530;2023-05-07T13:44:46;1.73;;;0.95;;
55148;SDS011;49539;48.160;11.530;2023-05-07T13:47:14;3.20;;;1.30;;
55148;SDS011;49539;48.160;11.530;2023-05-07T13:49:40;2.47;;;1.17;;
55148;SDS011;49539;48.160;11.530;2023-05-07T13:52:05;4.82;;;1.70;;
55148;SDS011;49539;48.160;11.530;2023-05-07T13:54:31;3.47;;;1.77;;
55148;SDS011;49539;48.160;11.530;2023-05-07T13:56:56;4.60;;;1.47;;
55148;SDS011;49539;48.160;11.530;2023-05-07T13:59:21;2.07;;;1.40;;
55148;SDS011;49539;48.160;11.530;2023-05-07T14:01:46;4.57;;;1.63;;
55148;SDS011;49539;48.160;11.530;2023-05-07T14:04:12;3.20;;;1.40;;
55148;SDS011;49539;48.160;11.530;2023-05-07T14:06:37;2.25;;;1.38;;
55148;SDS011;49539;48.160;11.530;2023-05-07T14:09:02;4.00;;;1.83;;
55148;SDS011;49539;48.160;11.530;2023-05-07T14:11:28;2.55;;;1.50;;
55148;SDS011;49539;48.160;11.530;2023-05-07T14:13:53;6.10;;;1.55;;
55148;SDS011;49539;48.160;11.530;2023-05-07T14:16:19;3.28;;;1.70;;
55148;SDS011;49539;48.160;11.530;2023-05-07T14:18:44;3.30;;;1.95;;
55148;SDS011;49539;48.160;11.530;2023-05-07T14:21:09;2.60;;;1.40;;
55148;SDS011;49539;48.160;11.530;2023-05-07T14:23:36;2.95;;;1.83;;
55148;SDS011;49539;48.160;11.530;2023-05-07T14:26:01;2.80;;;1.75;;
55148;SDS011;49539;48.160;11.530;2023-05-07T14:28:27;2.55;;;1.65;;
55148;SDS011;49539;48.160;11.530;2023-05-07T14:30:53;2.38;;;1.65;;
55148;SDS011;49539;48.160;11.530;2023-05-07T14:33:18;2.03;;;1.20;;
55148;SDS011;49539;48.160;11.530;2023-05-07T14:35:43;4.03;;;1.77;;
55148;SDS011;49539;48.160;11.530;2023-05-07T14:38:13;3.80;;;2.15;;
55148;SDS011;49539;48.160;11.530;2023-05-07T14:40:39;2.75;;;1.73;;
55148;SDS011;49539;48.160;11.530;2023-05-07T14:43:04;2.63;;;1.67;;
55148;SDS011;49539;48.160;11.530;2023-05-07T14:45:30;2.95;;;1.73;;
55148;SDS011;49539;48.160;11.530;2023-05-07T14:47:55;3.20;;;2.10;;